Time;durP1;ratioP1;P1;durP2;ratioP2;P2;SDS_P1;SDS_P2;PMS_P1;PMS_P2;Temp;Humidity;BMP_temperature;BMP_pressure;BME280_temperature;BME280_humidity;BME280_pressure;Samples;Min_cycle;Max_cycle;Signal;HPM_P1;HPM_P2
2021/05/23 00:01:58;;;;;;;7.53;4.17;;;;;;;10.35;65.79;98471.44;2149017;83;20899;-77
2021/05/23 00:04:58;;;;;;;6.43;4.10;;;;;;;10.34;65.78;98471.44;2149043;82;20983;-77
2021/05/23 00:08:00;;;;;;;9.43;4.40;;;;;;;10.36;65.82;98465.36;2149077;82;21290;-77
2021/05/23 00:11:01;;;;;;;7.00;4.20;;;;;;;10.40;65.70;98471.48;2148892;82;20990;-77
2021/05/23 00:14:02;;;;;;;9.37;4.10;;;;;;;10.41;65.62;98462.82;2149090;82;20962;-77
2021/05/23 00:17:03;;;;;;;7.80;3.73;;;;;;;10.43;65.60;98471.53;2148922;82;20927;-77
2021/05/23 00:20:04;;;;;;;5.43;3.50;;;;;;;10.45;65.59;98471.11;2149009;83;20943;-77
2021/05/23 00:23:05;;;;;;;7.00;3.77;;;;;;;10.43;65.74;98469.79;2148868;83;21259;-76
2021/05/23 00:26:06;;;;;;;7.40;3.43;;;;;;;10.45;65.50;98468.50;2148903;82;21009;-77
2021/05/23 00:29:07;;;;;;;9.07;3.93;;;;;;;10.47;65.37;98471.98;2148888;83;20957;-76
2021/05/23 00:32:08;;;;;;;7.27;4.00;;;;;;;10.50;65.24;98469.40;2149047;83;20982;-77
2021/05/23 00:35:09;;;;;;;8.70;3.83;;;;;;;10.50;65.29;98464.18;2148903;83;21011;-76
2021/05/23 00:38:11;;;;;;;8.83;4.20;;;;;;;10.52;65.52;98467.23;2149036;83;20991;-77
2021/05/23 00:41:12;;;;;;;5.97;4.27;;;;;;;10.53;65.53;98478.55;2148993;82;21074;-76
2021/05/23 00:44:13;;;;;;;7.27;3.97;;;;;;;10.55;65.75;98478.13;2149176;82;20946;-77
2021/05/23 00:47:14;;;;;;;7.53;3.90;;;;;;;10.58;65.66;98479.88;2149329;82;21295;-78
2021/05/23 00:50:14;;;;;;;8.77;4.30;;;;;;;10.59;65.71;98480.33;2149285;82;21359;-77
2021/05/23 00:53:15;;;;;;;10.07;4.13;;;;;;;10.60;65.86;98482.07;2149078;83;21488;-77
2021/05/23 00:56:18;;;;;;;7.37;3.87;;;;;;;10.62;65.93;98482.52;2149350;83;21354;-76
2021/05/23 00:59:19;;;;;;;8.43;4.50;;;;;;;10.59;65.99;98483.81;2149014;82;21390;-77
2021/05/23 01:02:20;;;;;;;9.87;4.20;;;;;;;10.55;66.14;98491.17;2149207;82;21017;-77
2021/05/23 01:05:21;;;;;;;8.27;4.40;;;;;;;10.51;66.31;98493.33;2149021;83;21414;-77
2021/05/23 01:08:22;;;;;;;7.80;4.10;;;;;;;10.47;66.56;98496.34;2149192;83;20939;-76
2021/05/23 01:11:23;;;;;;;7.53;4.30;;;;;;;10.47;66.59;98492.86;2149030;82;20967;-78
2021/05/23 01:14:24;;;;;;;5.80;3.83;;;;;;;10.45;66.85;98491.98;2149164;83;20990;-77
2021/05/23 01:17:25;;;;;;;8.07;4.53;;;;;;;10.44;66.95;98491.54;2149052;82;21414;-77
2021/05/23 01:20:26;;;;;;;7.83;4.03;;;;;;;10.41;66.94;98485.87;2149165;83;20938;-77
2021/05/23 01:23:27;;;;;;;8.33;3.80;;;;;;;10.38;67.06;98487.12;2149007;82;21413;-77
2021/05/23 01:26:28;;;;;;;11.57;3.80;;;;;;;10.34;67.02;98487.96;2149011;83;20974;-76
2021/05/23 01:29:29;;;;;;;6.93;3.67;;;;;;;10.30;67.31;98481.41;2149019;83;20993;-76
2021/05/23 01:32:29;;;;;;;6.73;4.13;;;;;;;10.27;67.49;98497.03;2149169;83;20989;-77
2021/05/23 01:35:30;;;;;;;7.40;3.67;;;;;;;10.20;67.43;98486.98;2149257;82;20978;-76
2021/05/23 01:38:31;;;;;;;7.70;4.00;;;;;;;10.13;67.48;98487.34;2149312;83;21330;-77
2021/05/23 01:41:32;;;;;;;4.80;3.80;;;;;;;10.07;67.69;98487.72;2149240;82;21303;-76
2021/05/23 01:44:33;;;;;;;8.17;4.13;;;;;;;10.00;68.01;98493.31;2149130;83;21368;-77
2021/05/23 01:47:34;;;;;;;6.60;4.10;;;;;;;9.93;68.05;98491.95;2149170;83;21006;-77
2021/05/23 01:50:35;;;;;;;8.53;3.87;;;;;;;9.89;68.13;98481.92;2149157;83;21341;-77
2021/05/23 01:53:36;;;;;;;7.57;4.10;;;;;;;9.84;68.29;98486.22;2139251;82;21062;-78
2021/05/23 01:56:38;;;;;;;7.07;4.40;;;;;;;9.78;68.54;98491.37;2137775;83;20946;-77
2021/05/23 01:59:39;;;;;;;7.93;4.00;;;;;;;9.74;68.71;98488.30;2137839;83;20982;-76
2021/05/23 02:02:40;;;;;;;11.73;4.57;;;;;;;9.70;69.03;98483.92;2137922;83;21006;-76
2021/05/23 02:05:41;;;;;;;8.20;4.70;;;;;;;9.66;68.98;98486.92;2137892;83;21034;-77
2021/05/23 02:08:42;;;;;;;11.17;4.63;;;;;;;9.63;69.16;98496.45;2137920;83;20943;-77
2021/05/23 02:11:43;;;;;;;6.37;4.07;;;;;;;9.56;69.47;98488.56;2137911;83;21054;-77
2021/05/23 02:14:44;;;;;;;8.63;4.33;;;;;;;9.50;69.56;98493.68;2138033;83;21018;-77
2021/05/23 02:17:45;;;;;;;9.67;4.80;;;;;;;9.41;69.61;98493.59;2137932;83;21318;-76
2021/05/23 02:20:46;;;;;;;8.17;4.73;;;;;;;9.33;69.92;98493.93;2137989;83;21279;-77
2021/05/23 02:23:47;;;;;;;9.13;4.40;;;;;;;9.23;69.95;98500.77;2137798;83;21121;-76
2021/05/23 02:26:48;;;;;;;10.00;4.80;;;;;;;9.17;70.24;98495.48;2137938;83;21288;-76
2021/05/23 02:29:49;;;;;;;11.70;5.07;;;;;;;9.10;70.29;98494.09;2137996;83;21307;-77
2021/05/23 02:32:50;;;;;;;10.10;4.90;;;;;;;9.04;70.55;98500.09;2137759;83;20919;-77
2021/05/23 02:35:51;;;;;;;7.80;5.03;;;;;;;8.99;70.60;98491.78;2137868;83;21022;-76
2021/05/23 02:38:52;;;;;;;7.57;5.20;;;;;;;8.99;70.66;98491.36;2137842;83;21058;-77
2021/05/23 02:41:53;;;;;;;12.27;4.97;;;;;;;8.92;70.64;98492.14;2137834;83;20927;-77
2021/05/23 02:44:54;;;;;;;8.77;5.50;;;;;;;8.89;70.66;98499.48;2137738;83;20947;-77
2021/05/23 02:47:55;;;;;;;9.63;5.23;;;;;;;8.85;70.95;98500.30;2137884;83;20977;-76
2021/05/23 02:50:56;;;;;;;8.93;5.67;;;;;;;8.77;70.74;98499.32;2137839;83;20915;-76
2021/05/23 02:53:57;;;;;;;9.93;5.30;;;;;;;8.68;70.61;98503.09;2137700;83;21015;-77
2021/05/23 02:56:58;;;;;;;14.17;4.77;;;;;;;8.60;70.63;98500.78;2137735;83;21026;-76
2021/05/23 02:59:59;;;;;;;9.23;4.17;;;;;;;8.52;70.69;98501.97;2137830;83;21018;-77
2021/05/23 03:03:00;;;;;;;8.77;5.00;;;;;;;8.35;70.69;98498.68;2137859;83;21481;-77
2021/05/23 03:06:01;;;;;;;9.60;4.27;;;;;;;8.21;70.97;98508.84;2137887;83;20993;-77
2021/05/23 03:09:02;;;;;;;5.57;3.87;;;;;;;8.14;71.06;98518.69;2138012;83;20974;-77
2021/05/23 03:12:03;;;;;;;8.97;4.20;;;;;;;8.04;71.28;98524.16;2137996;83;21058;-77
2021/05/23 03:15:03;;;;;;;8.83;4.03;;;;;;;7.96;71.39;98521.86;2137821;83;20922;-77
2021/05/23 03:18:04;;;;;;;9.27;4.10;;;;;;;7.92;71.49;98530.03;2137875;83;21006;-77
2021/05/23 03:21:05;;;;;;;11.23;4.40;;;;;;;7.83;71.49;98523.80;2137845;83;20966;-77
2021/05/23 03:24:06;;;;;;;10.80;5.13;;;;;;;7.75;71.67;98526.23;2137759;83;21029;-77
2021/05/23 03:27:07;;;;;;;6.53;4.10;;;;;;;7.73;72.13;98529.22;2138017;83;20938;-77
2021/05/23 03:30:08;;;;;;;8.43;4.57;;;;;;;8.56;85.90;98525.01;2137857;83;21006;-77
2021/05/23 03:33:09;;;;;;;10.47;6.03;;;;;;;9.35;82.47;98528.69;2137856;83;20959;-77
2021/05/23 03:36:10;;;;;;;9.83;5.87;;;;;;;9.62;72.68;98532.05;2137715;83;21030;-77
2021/05/23 03:39:11;;;;;;;10.37;5.90;;;;;;;9.37;71.43;98538.69;2138307;83;20982;-77
2021/05/23 03:42:12;;;;;;;10.43;6.40;;;;;;;10.47;84.68;98544.63;2139061;83;21045;-78
2021/05/23 03:45:13;;;;;;;16.33;5.53;;;;;;;13.03;85.10;98536.61;2139212;83;20927;-77
2021/05/23 03:48:14;;;;;;;10.38;6.28;;;;;;;15.00;79.73;98532.77;2139011;83;20999;-78
2021/05/23 03:51:15;;;;;;;8.60;5.42;;;;;;;16.16;74.48;98525.14;2138906;83;21402;-78
2021/05/23 03:54:16;;;;;;;5.42;3.80;;;;;;;17.05;71.52;98527.16;2149237;83;21486;-78
2021/05/23 03:57:16;;;;;;;8.55;5.08;;;;;;;17.67;67.41;98521.11;2150560;82;21383;-78
2021/05/23 04:00:18;;;;;;;7.72;4.80;;;;;;;18.15;66.09;98530.15;2150796;82;20931;-78
2021/05/23 04:03:22;;;;;;;8.90;5.55;;;;;;;18.65;63.80;98529.42;2150232;82;20987;-78
2021/05/23 04:06:21;;;;;;;7.67;5.28;;;;;;;18.97;61.77;98529.45;2150708;82;21429;-78
2021/05/23 04:09:23;;;;;;;13.70;5.25;;;;;;;19.08;59.85;98532.70;2149560;83;20941;-78
2021/05/23 04:12:30;;;;;;;8.23;5.35;;;;;;;18.97;58.00;98530.77;2149574;82;21042;-78
2021/05/23 04:15:26;;;;;;;8.93;5.55;;;;;;;18.87;57.18;98533.24;2149385;82;21013;-78
2021/05/23 04:18:27;;;;;;;10.05;5.87;;;;;;;18.84;54.81;98532.00;2150210;82;21306;-78
2021/05/23 04:21:28;;;;;;;10.85;5.55;;;;;;;18.70;55.28;98527.08;2150148;83;20970;-78
2021/05/23 04:24:29;;;;;;;11.03;5.83;;;;;;;18.77;55.53;98523.36;2149880;82;21085;-79
2021/05/23 04:27:30;;;;;;;9.23;5.45;;;;;;;18.74;52.74;98522.58;2149848;83;20918;-78
2021/05/23 04:30:31;;;;;;;9.30;5.83;;;;;;;18.76;54.78;98533.98;2149814;83;20949;-78
2021/05/23 04:33:32;;;;;;;7.00;5.42;;;;;;;18.89;54.20;98528.78;2149568;82;20971;-77
2021/05/23 04:36:33;;;;;;;7.85;5.72;;;;;;;18.93;53.92;98538.37;2149853;82;20997;-78
2021/05/23 04:39:34;;;;;;;10.45;5.60;;;;;;;19.15;53.11;98541.79;2149617;83;20938;-77
2021/05/23 04:42:35;;;;;;;13.20;6.20;;;;;;;19.03;51.64;98534.57;2149687;83;21030;-78
2021/05/23 04:45:36;;;;;;;10.72;5.67;;;;;;;18.67;51.56;98536.86;2149789;82;21323;-78
2021/05/23 04:48:37;;;;;;;8.20;5.60;;;;;;;18.31;51.93;98543.89;2149643;82;21310;-78
2021/05/23 04:51:38;;;;;;;11.55;5.70;;;;;;;18.00;52.44;98537.97;2149605;83;20970;-79
2021/05/23 04:54:39;;;;;;;10.60;6.75;;;;;;;18.29;53.00;98539.97;2150262;82;21096;-78
2021/05/23 04:57:40;;;;;;;9.83;5.60;;;;;;;18.70;52.97;98540.75;2149783;82;21005;-78
2021/05/23 05:00:41;;;;;;;10.78;6.00;;;;;;;19.08;52.19;98542.41;2149630;82;21069;-78
2021/05/23 05:03:42;;;;;;;11.63;5.72;;;;;;;19.51;51.46;98543.41;2150333;83;20950;-82
2021/05/23 05:06:43;;;;;;;10.30;5.28;;;;;;;19.65;51.49;98539.92;2151140;82;20962;-83
2021/05/23 05:09:44;;;;;;;11.12;5.85;;;;;;;19.64;50.96;98544.81;2150985;83;20950;-82
2021/05/23 05:12:45;;;;;;;14.75;6.90;;;;;;;19.71;50.27;98551.66;2150702;82;21015;-82
2021/05/23 05:15:46;;;;;;;10.03;5.72;;;;;;;19.33;50.20;98550.09;2150681;83;20957;-81
2021/05/23 05:18:47;;;;;;;9.70;5.95;;;;;;;19.56;50.32;98554.76;2150668;82;20927;-81
2021/05/23 05:21:48;;;;;;;12.70;6.03;;;;;;;19.49;48.71;98554.48;2150814;83;20981;-82
2021/05/23 05:24:49;;;;;;;13.13;5.75;;;;;;;19.36;51.33;98553.10;2150648;82;21109;-83
2021/05/23 05:27:50;;;;;;;12.78;6.40;;;;;;;19.38;48.72;98553.93;2151075;82;20937;-81
2021/05/23 05:30:51;;;;;;;11.22;5.90;;;;;;;19.48;50.07;98556.73;2150917;82;21018;-82
2021/05/23 05:33:53;;;;;;;11.28;6.37;;;;;;;19.61;46.10;98559.92;2150775;83;21370;-81
2021/05/23 05:36:54;;;;;;;9.00;5.55;;;;;;;19.28;49.52;98561.25;2150665;83;21370;-82
2021/05/23 05:39:55;;;;;;;8.80;5.78;;;;;;;19.47;48.29;98568.23;2151010;83;21010;-81
2021/05/23 05:42:56;;;;;;;13.62;8.68;;;;;;;19.75;50.22;98573.63;2150762;83;21136;-81
2021/05/23 05:45:57;;;;;;;11.90;6.17;;;;;;;20.18;47.20;98567.92;2150956;83;20942;-82
2021/05/23 05:48:58;;;;;;;11.70;6.12;;;;;;;20.41;46.70;98565.04;2150980;82;21252;-81
2021/05/23 05:51:58;;;;;;;9.53;6.08;;;;;;;20.36;46.42;98558.07;2150880;83;21319;-83
2021/05/23 05:55:00;;;;;;;9.83;6.62;;;;;;;20.05;45.16;98566.58;2150909;82;21017;-81
2021/05/23 05:58:00;;;;;;;11.12;6.70;;;;;;;20.00;46.94;98565.39;2151200;83;20970;-82
2021/05/23 06:01:01;;;;;;;8.05;5.28;;;;;;;20.42;45.62;98558.36;2150569;82;21008;-82
2021/05/23 06:04:02;;;;;;;11.28;6.35;;;;;;;20.61;45.51;98556.84;2150890;83;21350;-81
2021/05/23 06:07:04;;;;;;;12.15;6.53;;;;;;;20.81;44.80;98554.88;2150921;82;21030;-83
2021/05/23 06:10:05;;;;;;;10.78;6.60;;;;;;;20.86;43.99;98543.66;2151045;83;20930;-81
2021/05/23 06:13:06;;;;;;;13.65;5.97;;;;;;;20.78;43.48;98541.69;2151137;83;21019;-81
2021/05/23 06:16:06;;;;;;;9.90;6.00;;;;;;;20.76;43.44;98543.53;2151178;82;20934;-80
2021/05/23 06:19:07;;;;;;;55.83;42.83;;;;;;;20.65;43.78;98544.34;2151922;82;20914;-82
2021/05/23 06:22:08;;;;;;;64.50;50.75;;;;;;;20.82;44.16;98543.35;2188872;81;20950;-81
2021/05/23 06:25:09;;;;;;;25.60;20.20;;;;;;;21.22;42.86;98539.30;2151956;83;21002;-80
2021/05/23 06:28:10;;;;;;;23.92;15.95;;;;;;;21.50;41.52;98546.70;2189572;81;20919;-81
2021/05/23 06:31:11;;;;;;;15.40;11.45;;;;;;;21.62;41.13;98547.57;2152313;83;20961;-81
2021/05/23 06:34:12;;;;;;;11.03;6.67;;;;;;;21.65;39.86;98552.36;2189939;81;20950;-81
2021/05/23 06:37:14;;;;;;;12.43;7.37;;;;;;;21.74;40.06;98552.92;2152159;83;20997;-82
2021/05/23 06:40:14;;;;;;;12.98;5.83;;;;;;;21.67;40.59;98557.16;2189762;81;20978;-81
2021/05/23 06:43:15;;;;;;;11.88;5.78;;;;;;;21.97;40.30;98553.83;2152359;83;20956;-82
2021/05/23 06:46:16;;;;;;;10.78;6.42;;;;;;;22.30;40.63;98552.53;2189198;81;20939;-83
2021/05/23 06:49:17;;;;;;;11.63;5.37;;;;;;;22.40;39.69;98553.89;2151050;83;21042;-82
2021/05/23 06:52:18;;;;;;;10.55;5.92;;;;;;;22.01;40.15;98566.08;2188555;81;20966;-83
2021/05/23 06:55:19;;;;;;;9.98;5.35;;;;;;;22.22;40.23;98563.94;2151107;82;21029;-82
2021/05/23 06:58:20;;;;;;;12.47;4.87;;;;;;;22.30;39.12;98556.52;2188472;81;20954;-83
2021/05/23 07:01:21;;;;;;;9.28;5.08;;;;;;;22.22;39.66;98562.14;2150756;83;21073;-82
2021/05/23 07:04:22;;;;;;;9.65;5.30;;;;;;;21.76;40.22;98561.70;2188480;81;21057;-82
2021/05/23 07:07:23;;;;;;;8.73;5.28;;;;;;;21.62;39.61;98566.16;2150792;83;20994;-83
2021/05/23 07:10:24;;;;;;;9.38;5.20;;;;;;;21.09;41.28;98566.73;2188526;81;20938;-82
2021/05/23 07:13:28;;;;;;;;;;;;;;;21.44;41.54;98571.28;2153066;83;21034;-81
2021/05/23 07:16:29;;;;;;;9.20;5.00;;;;;;;21.81;40.47;98564.17;2188305;81;20182;-82
2021/05/23 07:19:30;;;;;;;11.12;4.80;;;;;;;22.01;40.21;98566.94;2151116;83;20899;-81
2021/05/23 07:22:31;;;;;;;10.00;4.90;;;;;;;22.14;39.64;98569.55;2188668;81;20966;-82
2021/05/23 07:25:33;;;;;;;6.83;4.35;;;;;;;22.22;38.94;98572.78;2151185;83;20990;-81
2021/05/23 07:28:34;;;;;;;6.50;4.10;;;;;;;22.22;39.15;98578.09;2188085;81;20950;-81
2021/05/23 07:31:35;;;;;;;6.55;4.03;;;;;;;22.27;38.89;98578.38;2151018;83;20978;-84
2021/05/23 07:34:36;;;;;;;8.78;4.55;;;;;;;22.40;38.79;98578.29;2188475;81;21085;-83
2021/05/23 07:37:37;;;;;;;6.35;4.28;;;;;;;22.55;38.46;98581.23;2150603;83;21058;-81
2021/05/23 07:40:38;;;;;;;19.27;4.75;;;;;;;22.18;36.54;98581.80;2187951;81;21318;-82
2021/05/23 07:43:40;;;;;;;7.08;4.05;;;;;;;21.52;39.27;98586.02;2150557;83;21059;-83
2021/05/23 07:46:40;;;;;;;6.72;4.30;;;;;;;22.01;38.53;98583.34;2188062;81;20968;-82
2021/05/23 07:49:42;;;;;;;10.98;3.80;;;;;;;22.20;38.52;98583.94;2151356;83;21021;-82
2021/05/23 07:52:42;;;;;;;8.33;3.77;;;;;;;22.42;38.09;98587.94;2188686;81;21283;-83
2021/05/23 07:55:45;;;;;;;8.05;3.85;;;;;;;22.62;36.69;98581.84;2134766;83;21397;-82
2021/05/23 07:58:45;;;;;;;5.17;3.83;;;;;;;22.76;37.97;98579.48;2188591;81;20989;-82
2021/05/23 08:01:47;;;;;;;8.88;3.67;;;;;;;22.92;36.79;98584.20;2151274;83;21033;-82
2021/05/23 08:04:47;;;;;;;5.72;3.35;;;;;;;22.85;36.55;98576.47;2188820;81;20985;-82
2021/05/23 08:07:48;;;;;;;7.10;3.27;;;;;;;22.83;35.19;98577.00;2151267;83;20950;-81
2021/05/23 08:10:50;;;;;;;7.03;3.30;;;;;;;22.71;35.85;98582.80;2188870;81;20915;-81
2021/05/23 08:13:51;;;;;;;5.62;3.15;;;;;;;22.78;35.58;98581.61;2151334;83;21350;-83
2021/05/23 08:16:51;;;;;;;6.70;3.65;;;;;;;22.89;35.08;98586.52;2188631;81;20935;-81
2021/05/23 08:19:53;;;;;;;6.87;3.40;;;;;;;22.52;34.15;98591.09;2150892;83;21002;-83
2021/05/23 08:22:53;;;;;;;51.33;45.80;;;;;;;22.04;36.43;98588.11;2188321;81;20962;-84
2021/05/23 08:25:54;;;;;;;40.25;34.08;;;;;;;22.61;35.51;98583.23;2150366;83;21022;-82
2021/05/23 08:28:55;;;;;;;7.53;3.35;;;;;;;22.99;34.78;98593.65;2187723;81;20982;-81
2021/05/23 08:31:56;;;;;;;14.18;12.50;;;;;;;22.61;34.53;98593.41;2150366;83;20950;-81
2021/05/23 08:34:57;;;;;;;5.55;2.70;;;;;;;22.18;35.26;98588.45;2187678;81;20931;-82
2021/05/23 08:37:58;;;;;;;10.38;3.80;;;;;;;22.37;33.48;98591.25;2150799;83;20954;-80
2021/05/23 08:40:59;;;;;;;5.20;2.62;;;;;;;22.25;34.89;98596.58;2187537;81;21029;-82
2021/05/23 08:44:00;;;;;;;9.05;3.98;;;;;;;21.75;34.56;98586.53;2150312;83;20969;-82
2021/05/23 08:47:01;;;;;;;15.55;3.50;;;;;;;22.09;35.24;98592.79;2187812;81;21010;-80
2021/05/23 08:50:02;;;;;;;3.90;2.60;;;;;;;22.14;34.00;98599.26;2150445;83;20994;-81
2021/05/23 08:53:03;;;;;;;4.40;2.90;;;;;;;21.71;33.45;98588.03;2187709;81;20970;-80
2021/05/23 08:56:04;;;;;;;4.33;2.77;;;;;;;21.45;35.52;98582.31;2188507;81;21020;-81
2021/05/23 08:59:05;;;;;;;4.67;2.58;;;;;;;21.67;35.04;98584.59;2188675;81;20934;-82
2021/05/23 09:02:06;;;;;;;3.77;2.83;;;;;;;21.46;36.02;98590.22;2188543;81;20938;-80
2021/05/23 09:05:07;;;;;;;6.50;4.17;;;;;;;21.43;36.38;98586.34;2188724;81;20981;-81
2021/05/23 09:08:08;;;;;;;4.97;2.90;;;;;;;21.39;37.07;98582.07;2188345;81;20953;-81
2021/05/23 09:11:09;;;;;;;4.62;2.80;;;;;;;21.42;36.70;98579.77;2188930;81;21325;-81
2021/05/23 09:14:10;;;;;;;4.92;3.35;;;;;;;21.74;36.51;98579.95;2188407;81;21045;-80
2021/05/23 09:17:12;;;;;;;6.58;3.22;;;;;;;21.37;36.95;98581.26;2188384;81;21007;-80
2021/05/23 09:20:13;;;;;;;5.90;2.85;;;;;;;21.25;37.29;98579.04;2188510;81;21330;-81
2021/05/23 09:23:16;;;;;;;4.97;2.83;;;;;;;21.11;37.61;98583.94;2188586;81;21010;-80
2021/05/23 09:26:17;;;;;;;5.90;3.15;;;;;;;21.17;37.74;98584.59;2150931;83;21087;-82
2021/05/23 09:29:18;;;;;;;4.30;3.42;;;;;;;21.37;38.89;98587.89;2164588;82;20943;-81
2021/05/23 09:32:19;;;;;;;4.67;3.20;;;;;;;21.52;36.18;98597.97;2151265;83;21081;-82
2021/05/23 09:35:20;;;;;;;3.90;2.85;;;;;;;21.56;37.08;98592.08;2164573;82;20951;-83
2021/05/23 09:38:21;;;;;;;3.52;2.45;;;;;;;21.78;36.80;98594.38;2150983;83;20949;-82
2021/05/23 09:41:22;;;;;;;5.42;2.75;;;;;;;21.36;36.87;98595.45;2164806;82;21294;-81
2021/05/23 09:44:23;;;;;;;4.55;2.67;;;;;;;21.32;36.52;98593.83;2151124;83;20961;-82
2021/05/23 09:47:24;;;;;;;3.47;2.85;;;;;;;21.15;35.61;98603.68;2164658;82;20954;-81
2021/05/23 09:50:25;;;;;;;5.75;2.92;;;;;;;21.08;36.32;98600.83;2150915;83;21298;-81
2021/05/23 09:53:31;;;;;;;7.17;2.70;;;;;;;21.32;37.23;98611.55;2164619;82;21335;-82
2021/05/23 09:56:33;;;;;;;3.85;2.52;;;;;;;21.49;36.67;98611.81;2150163;82;21485;-82
2021/05/23 09:59:34;;;;;;;4.37;2.72;;;;;;;21.13;36.81;98616.59;2187723;81;20974;-81
2021/05/23 10:02:35;;;;;;;5.53;2.77;;;;;;;20.82;36.64;98619.41;2150310;83;20992;-80
2021/05/23 10:05:35;;;;;;;3.55;3.05;;;;;;;20.93;36.23;98619.92;2187845;81;20915;-81
2021/05/23 10:08:36;;;;;;;3.27;2.60;;;;;;;20.89;36.93;98620.48;2150317;83;20947;-82
2021/05/23 10:11:37;;;;;;;3.77;2.72;;;;;;;20.90;37.34;98618.70;2187955;81;21318;-82
2021/05/23 10:14:38;;;;;;;4.47;3.30;;;;;;;20.87;37.21;98618.80;2150210;83;21039;-82
2021/05/23 10:17:39;;;;;;;3.87;2.65;;;;;;;20.75;38.54;98626.67;2187616;81;20963;-81
2021/05/23 10:20:41;;;;;;;4.92;2.83;;;;;;;20.87;36.70;98624.97;2150241;83;20942;-81
2021/05/23 10:23:42;;;;;;;4.30;2.77;;;;;;;20.89;37.34;98631.55;2187856;81;20994;-81
2021/05/23 10:26:43;;;;;;;5.42;2.92;;;;;;;20.73;38.11;98639.11;2150665;83;21378;-81
2021/05/23 10:29:44;;;;;;;7.10;3.08;;;;;;;20.68;37.85;98639.72;2187961;81;21310;-81
2021/05/23 10:32:45;;;;;;;7.33;2.98;;;;;;;20.27;37.94;98639.20;2150512;83;20947;-81
2021/05/23 10:35:46;;;;;;;7.72;2.60;;;;;;;20.13;38.15;98641.40;2187966;81;21334;-82
2021/05/23 10:38:47;;;;;;;5.65;2.33;;;;;;;20.10;37.97;98638.84;2150551;83;21109;-82
2021/05/23 10:41:47;;;;;;;4.20;2.22;;;;;;;20.29;37.78;98633.85;2187680;81;21053;-82
2021/05/23 10:44:48;;;;;;;8.83;2.55;;;;;;;20.54;37.87;98644.59;2150754;83;21047;-81
2021/05/23 10:47:49;;;;;;;5.53;2.72;;;;;;;20.47;36.39;98649.22;2187991;81;20982;-81
2021/05/23 10:50:50;;;;;;;5.10;2.92;;;;;;;20.22;37.38;98639.80;2150555;83;21058;-80
2021/05/23 10:53:51;;;;;;;3.00;2.12;;;;;;;20.00;36.55;98642.67;2187991;81;21072;-81
2021/05/23 10:56:52;;;;;;;3.62;2.10;;;;;;;19.71;37.31;98647.00;2188791;81;21216;-81
2021/05/23 10:59:53;;;;;;;4.75;2.40;;;;;;;19.53;38.00;98639.56;2189341;81;20942;-82
2021/05/23 11:02:54;;;;;;;3.77;2.67;;;;;;;19.41;38.90;98641.19;2188833;81;20989;-81
2021/05/23 11:08:57;;;;;;;4.65;2.58;;;;;;;19.41;39.19;98647.80;2163002;81;21013;-81
2021/05/23 11:11:59;;;;;;;6.12;3.37;;;;;;;19.75;39.60;98648.23;2188956;81;21013;-81
2021/05/23 11:14:59;;;;;;;4.47;2.87;;;;;;;20.02;38.25;98648.80;2189331;81;20930;-81
2021/05/23 11:18:01;;;;;;;4.87;2.80;;;;;;;19.94;37.76;98649.02;2189104;81;20946;-80
2021/05/23 11:21:01;;;;;;;6.97;2.70;;;;;;;20.04;37.39;98654.92;2188593;81;20926;-82
2021/05/23 11:24:02;;;;;;;5.58;3.15;;;;;;;19.88;37.64;98645.64;2188680;81;20982;-81
2021/05/23 11:27:03;;;;;;;5.75;3.33;;;;;;;19.88;37.64;98645.64;2188705;81;20990;-81
2021/05/23 11:30:04;;;;;;;5.35;2.40;;;;;;;19.91;37.83;98648.20;2188916;81;20927;-80
2021/05/23 11:33:05;;;;;;;6.17;2.90;;;;;;;19.76;37.04;98648.64;2188705;81;20966;-81
2021/05/23 11:36:06;;;;;;;2.70;2.25;;;;;;;19.98;37.38;98653.77;2188741;81;20942;-83
2021/05/23 11:39:08;;;;;;;6.55;2.70;;;;;;;20.24;35.90;98653.00;2188820;81;21014;-81
2021/05/23 11:42:09;;;;;;;5.53;2.50;;;;;;;20.17;35.62;98653.64;2188657;81;21014;-82
2021/05/23 11:45:10;;;;;;;3.58;1.90;;;;;;;20.28;36.38;98656.84;2188712;81;20989;-81
2021/05/23 11:48:11;;;;;;;3.35;2.20;;;;;;;20.26;35.02;98657.80;2188971;81;20930;-81
2021/05/23 11:51:12;;;;;;;4.55;2.02;;;;;;;20.15;35.04;98665.20;2188914;81;21057;-81
2021/05/23 11:54:13;;;;;;;3.02;1.92;;;;;;;20.11;35.23;98655.16;2188776;81;21018;-81
2021/05/23 11:57:14;;;;;;;3.30;1.87;;;;;;;20.10;34.17;98666.66;2188688;81;21026;-82
2021/05/23 12:00:15;;;;;;;6.55;2.50;;;;;;;20.11;34.14;98663.55;2188737;81;20946;-82
2021/05/23 12:03:16;;;;;;;6.53;1.90;;;;;;;20.06;33.70;98670.31;2188432;81;20950;-82
2021/05/23 12:06:17;;;;;;;6.12;2.70;;;;;;;20.10;34.55;98668.44;2188777;81;20915;-82
2021/05/23 12:09:19;;;;;;;4.42;1.90;;;;;;;20.09;35.11;98672.88;2188530;81;20965;-82
2021/05/23 12:12:21;;;;;;;3.87;1.85;;;;;;;19.99;34.68;98670.08;2188649;81;21022;-80
2021/05/23 12:15:22;;;;;;;4.53;1.65;;;;;;;19.87;33.50;98667.30;2188361;81;20958;-81
2021/05/23 12:18:23;;;;;;;5.05;2.30;;;;;;;19.68;33.48;98670.91;2188423;81;20989;-81
2021/05/23 12:21:25;;;;;;;3.22;2.10;;;;;;;19.64;35.14;98664.42;2188461;81;21007;-83
2021/05/23 12:24:26;;;;;;;3.65;2.12;;;;;;;19.87;34.75;98669.07;2188360;81;21105;-82
2021/05/23 12:27:27;;;;;;;3.60;2.37;;;;;;;20.02;34.67;98664.23;2188536;81;21013;-82
2021/05/23 12:30:30;;;;;;;5.87;2.00;;;;;;;20.11;32.63;98670.18;2188113;81;20990;-81
2021/05/23 12:33:31;;;;;;;5.62;2.15;;;;;;;20.07;32.88;98664.10;2188326;81;20994;-82
2021/05/23 12:36:32;;;;;;;3.80;2.47;;;;;;;19.87;33.01;98661.13;2188447;81;21338;-81
2021/05/23 12:39:33;;;;;;;5.67;1.85;;;;;;;20.17;32.95;98660.72;2188459;81;20939;-83
2021/05/23 12:42:34;;;;;;;2.35;1.77;;;;;;;20.40;32.75;98657.41;2188692;81;21429;-81
2021/05/23 12:45:36;;;;;;;5.55;2.12;;;;;;;20.28;31.27;98654.64;2188579;81;20959;-82
2021/05/23 12:48:37;;;;;;;4.03;1.82;;;;;;;20.11;32.11;98663.09;2188342;81;21065;-82
2021/05/23 12:51:38;;;;;;;6.85;1.67;;;;;;;20.14;33.40;98659.48;2188437;81;20950;-80
2021/05/23 12:54:39;;;;;;;4.50;2.30;;;;;;;20.40;33.54;98660.06;2188665;81;21001;-82
2021/05/23 12:57:40;;;;;;;4.37;1.98;;;;;;;20.68;33.94;98662.27;2188551;81;21366;-81
2021/05/23 13:00:41;;;;;;;4.80;2.02;;;;;;;21.05;33.28;98657.12;2188827;81;21401;-81
2021/05/23 13:03:42;;;;;;;3.22;1.95;;;;;;;20.82;32.36;98661.39;2188745;81;20962;-81
2021/05/23 13:06:54;;;;;;;3.17;1.90;;;;;;;20.54;33.01;98661.83;2188954;81;21022;-83
2021/05/23 13:09:57;;;;;;;3.95;1.90;;;;;;;20.78;34.01;98666.36;2151029;83;21364;-81
2021/05/23 13:12:59;;;;;;;4.25;2.00;;;;;;;21.23;33.69;98660.52;2165253;82;21022;-82
2021/05/23 13:15:59;;;;;;;4.40;2.20;;;;;;;21.54;33.34;98659.86;2151267;83;20993;-83
2021/05/23 13:19:00;;;;;;;5.03;2.22;;;;;;;21.72;31.92;98656.17;2165098;82;20939;-82
2021/05/23 13:22:01;;;;;;;3.98;2.08;;;;;;;21.39;32.50;98656.88;2151077;83;20968;-80
2021/05/23 13:25:04;;;;;;;4.12;2.55;;;;;;;21.35;33.05;98657.44;2164811;82;21014;-82
2021/05/23 13:28:05;;;;;;;5.12;2.20;;;;;;;21.06;33.42;98658.86;2151149;83;21107;-82
2021/05/23 13:31:06;;;;;;;2.50;1.70;;;;;;;20.94;32.45;98661.45;2164991;82;21030;-81
2021/05/23 13:34:07;;;;;;;4.95;2.92;;;;;;;20.35;33.28;98667.66;2151224;83;20925;-80
2021/05/23 13:37:08;;;;;;;2.95;2.10;;;;;;;20.19;34.10;98678.77;2164867;82;21066;-80
2021/05/23 13:40:09;;;;;;;5.15;1.87;;;;;;;20.19;34.21;98680.97;2151346;83;20932;-81
2021/05/23 13:43:10;;;;;;;3.45;2.05;;;;;;;20.01;34.12;98674.87;2164967;82;20978;-80
2021/05/23 13:49:14;;;;;;;4.85;1.70;;;;;;;19.88;34.57;98688.89;2141975;82;20979;-82
2021/05/23 13:52:15;;;;;;;3.33;2.20;;;;;;;19.70;35.26;98688.95;2151656;83;20941;-81
2021/05/23 13:55:15;;;;;;;4.45;2.47;;;;;;;19.67;34.74;98689.48;2165054;82;20994;-83
2021/05/23 13:58:17;;;;;;;5.55;1.62;;;;;;;19.77;35.22;98692.75;2151588;83;21084;-82
2021/05/23 14:01:18;;;;;;;4.50;1.62;;;;;;;19.73;34.84;98700.78;2165296;82;20935;-82
2021/05/23 14:04:19;;;;;;;4.83;2.67;;;;;;;19.63;35.74;98709.89;2151693;83;20957;-81
2021/05/23 14:07:20;;;;;;;3.40;2.17;;;;;;;19.47;35.21;98709.84;2165141;82;20974;-83
2021/05/23 14:10:21;;;;;;;3.05;2.10;;;;;;;19.45;34.73;98712.12;2151516;83;20981;-83
2021/05/23 14:13:22;;;;;;;4.55;2.20;;;;;;;19.39;35.18;98711.37;2165321;82;21002;-82
2021/05/23 14:16:23;;;;;;;4.97;2.33;;;;;;;19.47;34.71;98711.63;2150957;83;21032;-80